メインページ
METAR-TAF:

METAR-TAF

空港 :

カイエンヌ, フランス領ギアナ

カイエンヌ・フェリックス・エブエ国際空港

緯度: 04-50N, 経度: 052-22W, 海抜: 105m

現時点の気象観測

当レポートは14分前の06:00(UTC)に作成
東/北東の風 4kt、からの間で変化する
気温 25°C
湿度 94%
気圧 1010 hPa
視程10km以上
高度1300ftの雲はほとんどない
高度2100ftの雲は散在している
高度3200ftの千切れ雲あり

METAR: SOCA 280600Z AUTO 06004KT 360V090 9999 FEW013 SCT021 BKN032 25/24 Q1010 TEMPO 3000 SHRA SCT015TCU

時間: 03:14 (06:14 UTC)

予報

当レポートは1時間14分前の05:00(UTC)に作成
予報は28日の 06時(UTC)から 29日の 06時(UTC)まで有効
変向風 2kt
視程10km以上
高度2000ftの雲は散在している
高度5000ftの雲は散在している
確率 30% :
28日の 06時(UTC)から 28日の 12時(UTC)まで一時的に
視程: 3000m
高度1500ftの雲は散在している, 塔状積雲.
にわか雨
28日の 1400時(UTC)から
北東の風 12kt
視程10km以上
高度2500ftの雲は散在している
確率 30% :
28日の 18時(UTC)から 28日の 24時(UTC)まで一時的に
視程: 3000m
高度1200ftの雲は散在している, 塔状積雲.
にわか雨
28日の 23時(UTC)から 29日の 02時(UTC)まで徐々に
変向風 2kt

TAF: SOCA 280500Z 2806/2906 VRB02KT 9999 SCT020 SCT050 PROB30 TEMPO 2806/2812 3000 SHRA SCT015TCU FM281400 05012KT 9999 SCT025 PROB30 TEMPO 2818/2824 3000 SHRA SCT012TCU BECMG 2823/2902 VRB02KT

4,000以上の空港の気象観測と天気予報(METAR報とTAF報)

利用可能な観測所は地図上に黄色い丸と赤い丸で示す。

丸の上にカーソルを重ねると観測所名を参照できる。

次にクリックすると気象観測と天気予報を参照できる。

マップの切り替え:黒色「×」印の緑ボタンをクリックして拡大、「-」印の緑ボタンをクリックして縮小、緑色の三角印をクリックして隣りの地図に切り替え


METAR-TAF: